createdAt,value
2023-03-21T00:01:49.886Z,73.90
2023-03-21T00:04:16.857Z,74.40
2023-03-21T00:06:43.641Z,73.80
2023-03-21T00:09:12.932Z,73.80
2023-03-21T00:11:40.371Z,73.20
2023-03-21T00:14:08.605Z,73.50
2023-03-21T00:16:37.149Z,75.20
2023-03-21T00:19:06.854Z,76.60
2023-03-21T00:21:55.602Z,77.20
2023-03-21T00:24:25.352Z,77.30
2023-03-21T00:26:52.054Z,77.40
2023-03-21T00:29:19.003Z,77.40
2023-03-21T00:31:45.765Z,77.10
2023-03-21T00:36:42.892Z,76.80
2023-03-21T00:39:09.493Z,76.10
2023-03-21T00:41:42.961Z,76.40
2023-03-21T00:44:11.677Z,75.60
2023-03-21T00:46:57.278Z,76.20
2023-03-21T00:49:25.175Z,76.00
2023-03-21T00:51:52.074Z,75.30
2023-03-21T00:54:18.732Z,75.10
2023-03-21T00:56:45.367Z,74.40
2023-03-21T00:59:11.918Z,74.30
2023-03-21T01:01:40.801Z,74.30
2023-03-21T01:04:10.872Z,74.10
2023-03-21T01:06:40.792Z,74.60
2023-03-21T01:09:21.279Z,74.50
2023-03-21T01:11:50.852Z,74.10
2023-03-21T01:14:22.829Z,74.30
2023-03-21T01:16:53.411Z,74.60
2023-03-21T01:19:26.507Z,74.40
2023-03-21T01:21:54.647Z,74.70
2023-03-21T01:24:21.306Z,74.90
2023-03-21T01:26:47.822Z,74.90
2023-03-21T01:29:14.595Z,74.70
2023-03-21T01:31:41.233Z,75.10
2023-03-21T01:34:10.250Z,74.30
2023-03-21T01:36:36.876Z,74.00
2023-03-21T01:39:03.802Z,74.00
2023-03-21T01:41:42.387Z,73.70
2023-03-21T01:44:19.182Z,73.90
2023-03-21T01:47:00.077Z,73.90
2023-03-21T01:49:36.020Z,73.90
2023-03-21T01:52:12.155Z,74.40
2023-03-21T01:54:43.132Z,74.60
2023-03-21T01:57:12.160Z,74.40
2023-03-21T01:59:41.706Z,74.20
2023-03-21T02:02:33.701Z,75.30
2023-03-21T02:05:03.819Z,76.60
2023-03-21T02:07:37.536Z,77.30
2023-03-21T02:10:08.391Z,77.40
2023-03-21T02:12:35.258Z,77.40
2023-03-21T02:15:01.858Z,77.40
2023-03-21T02:17:35.528Z,77.40
2023-03-21T02:20:11.846Z,77.40
2023-03-21T02:22:50.510Z,77.40
2023-03-21T02:25:21.902Z,77.40
2023-03-21T02:27:54.728Z,77.40
2023-03-21T02:30:35.395Z,77.40
2023-03-21T02:33:14.354Z,77.40
2023-03-21T02:35:58.601Z,77.40
2023-03-21T02:38:36.580Z,77.40
2023-03-21T02:41:13.165Z,77.40
2023-03-21T02:43:44.750Z,77.40
2023-03-21T02:46:17.151Z,77.40
2023-03-21T02:49:06.800Z,77.40
2023-03-21T02:51:34.411Z,77.40
2023-03-21T02:54:27.854Z,77.40
2023-03-21T02:56:51.587Z,77.30
2023-03-21T02:59:19.388Z,77.40
2023-03-21T03:01:46.049Z,77.40
2023-03-21T03:04:23.296Z,77.40
2023-03-21T03:06:58.773Z,77.40
2023-03-21T03:09:54.449Z,77.30
2023-03-21T03:12:20.938Z,77.40
2023-03-21T03:15:02.216Z,77.40
2023-03-21T03:17:44.769Z,77.40
2023-03-21T03:20:16.781Z,77.40
2023-03-21T03:22:56.083Z,77.40
2023-03-21T03:25:41.485Z,77.40
2023-03-21T03:28:09.392Z,77.40
2023-03-21T03:30:44.696Z,77.40
2023-03-21T03:33:17.074Z,77.40
2023-03-21T03:35:46.429Z,77.40
2023-03-21T03:38:14.749Z,77.40
2023-03-21T03:40:43.980Z,77.40
2023-03-21T03:43:15.578Z,77.40
2023-03-21T03:45:49.795Z,77.40
2023-03-21T03:48:37.949Z,77.40
2023-03-21T03:51:07.464Z,77.40
2023-03-21T03:53:41.008Z,77.40
2023-03-21T03:56:08.110Z,77.40
2023-03-21T03:58:44.824Z,77.40
2023-03-21T04:01:12.416Z,77.40
2023-03-21T04:03:48.980Z,77.40
2023-03-21T04:06:17.659Z,77.40
2023-03-21T04:08:44.528Z,77.40
2023-03-21T04:11:13.320Z,77.40
2023-03-21T04:13:39.838Z,77.40
2023-03-21T04:16:06.928Z,77.40
2023-03-21T04:18:33.528Z,77.40
2023-03-21T04:21:00.333Z,77.40
2023-03-21T04:23:29.180Z,77.40
2023-03-21T04:25:57.230Z,77.40
2023-03-21T04:28:23.985Z,77.40
2023-03-21T04:31:01.283Z,77.40
2023-03-21T04:33:29.986Z,77.40
2023-03-21T04:35:56.602Z,77.40
2023-03-21T04:38:24.162Z,77.40
2023-03-21T04:40:50.822Z,77.40
2023-03-21T04:43:17.387Z,77.40
2023-03-21T04:45:43.977Z,77.40
2023-03-21T04:48:10.704Z,77.40
2023-03-21T04:50:37.632Z,77.40
2023-03-21T04:53:04.358Z,77.40
2023-03-21T04:55:32.327Z,77.40
2023-03-21T04:57:59.573Z,77.40
2023-03-21T05:00:28.710Z,77.40
2023-03-21T05:02:58.503Z,77.40
2023-03-21T05:05:25.069Z,77.40
2023-03-21T05:07:51.616Z,77.40
2023-03-21T05:10:18.200Z,77.40
2023-03-21T05:12:44.824Z,77.40
2023-03-21T05:15:11.434Z,77.40
2023-03-21T05:17:38.018Z,77.40
2023-03-21T05:20:05.731Z,77.40
2023-03-21T05:22:40.758Z,77.40
2023-03-21T05:25:08.476Z,77.40
2023-03-21T05:27:35.662Z,77.40
2023-03-21T05:30:06.977Z,77.40
2023-03-21T05:32:35.811Z,77.40
2023-03-21T05:35:02.783Z,77.40
2023-03-21T05:37:29.350Z,77.40
2023-03-21T05:39:55.946Z,77.40
2023-03-21T05:42:22.710Z,77.40
2023-03-21T05:44:49.407Z,77.40
2023-03-21T05:47:16.846Z,77.40
2023-03-21T05:49:43.991Z,77.40
2023-03-21T05:52:11.146Z,77.40
2023-03-21T05:54:37.736Z,77.40
2023-03-21T05:57:04.729Z,77.40
2023-03-21T05:59:31.344Z,77.40
2023-03-21T06:01:57.904Z,77.40
2023-03-21T06:04:24.529Z,77.40
2023-03-21T06:06:53.625Z,77.40
2023-03-21T06:09:23.292Z,77.40
2023-03-21T06:11:51.611Z,77.40
2023-03-21T06:14:18.497Z,77.40
2023-03-21T06:16:45.312Z,77.20
2023-03-21T06:19:11.913Z,77.40
2023-03-21T06:21:40.757Z,77.30
2023-03-21T06:24:07.406Z,77.30
2023-03-21T06:26:34.042Z,77.30
2023-03-21T06:29:03.094Z,77.10
2023-03-21T06:31:29.726Z,77.30
2023-03-21T06:33:56.342Z,77.10
2023-03-21T06:36:22.945Z,77.00
2023-03-21T06:38:49.488Z,77.20
2023-03-21T06:41:16.970Z,77.00
2023-03-21T06:43:43.989Z,77.00
2023-03-21T06:46:10.768Z,77.20
2023-03-21T06:51:44.509Z,76.50
2023-03-21T06:54:11.129Z,76.70
2023-03-21T06:56:37.768Z,76.50
2023-03-21T06:59:04.445Z,76.40
2023-03-21T07:01:31.037Z,76.50
2023-03-21T07:03:59.995Z,76.30
2023-03-21T07:06:26.696Z,76.30
2023-03-21T07:08:53.890Z,76.30
2023-03-21T07:11:21.357Z,76.20
2023-03-21T07:13:48.696Z,76.20
2023-03-21T07:16:16.074Z,76.40
2023-03-21T07:18:42.893Z,76.20
2023-03-21T07:21:11.844Z,76.20
2023-03-21T07:23:38.572Z,75.80
2023-03-21T07:26:05.636Z,75.80
2023-03-21T07:28:33.071Z,75.70
2023-03-21T07:31:01.444Z,75.80
2023-03-21T07:33:28.502Z,75.40
2023-03-21T07:35:56.624Z,75.20
2023-03-21T07:38:23.749Z,75.70
2023-03-21T07:40:50.552Z,75.90
2023-03-21T07:45:48.869Z,75.10
2023-03-21T07:48:17.392Z,75.20
2023-03-21T07:50:44.029Z,74.80
2023-03-21T07:53:12.714Z,74.60
2023-03-21T07:55:39.770Z,74.50
2023-03-21T07:58:08.905Z,74.40
2023-03-21T08:00:37.981Z,74.40
2023-03-21T08:03:04.648Z,74.40
2023-03-21T08:05:34.298Z,74.00
2023-03-21T08:08:00.862Z,74.10
2023-03-21T08:10:30.044Z,74.20
2023-03-21T08:13:00.036Z,73.90
2023-03-21T08:15:26.588Z,73.80
2023-03-21T08:17:53.164Z,73.80
2023-03-21T08:20:22.038Z,73.60
2023-03-21T08:22:51.610Z,73.50
2023-03-21T08:25:19.656Z,73.40
2023-03-21T08:27:46.786Z,73.10
2023-03-21T08:30:14.777Z,72.90
2023-03-21T08:32:42.222Z,72.80
2023-03-21T08:35:12.539Z,72.70
2023-03-21T08:37:40.200Z,72.70
2023-03-21T08:40:10.089Z,72.30
2023-03-21T08:42:43.556Z,72.10
2023-03-21T08:45:11.632Z,72.10
2023-03-21T08:47:38.417Z,72.20
2023-03-21T08:50:06.721Z,72.40
2023-03-21T08:52:33.749Z,72.30
2023-03-21T08:55:02.751Z,72.30
2023-03-21T08:57:29.966Z,72.10
2023-03-21T08:59:56.583Z,72.20
2023-03-21T09:02:23.146Z,72.20
2023-03-21T09:04:49.776Z,72.20
2023-03-21T09:07:18.011Z,72.20
2023-03-21T09:09:47.612Z,72.40
2023-03-21T09:12:17.307Z,72.40
2023-03-21T09:14:43.823Z,72.90
2023-03-21T09:17:10.489Z,72.60
2023-03-21T09:19:38.786Z,73.10
2023-03-21T09:22:05.644Z,72.50
2023-03-21T09:24:32.322Z,72.70
2023-03-21T09:26:59.449Z,72.50
2023-03-21T09:29:26.427Z,72.80
2023-03-21T09:31:53.795Z,72.40
2023-03-21T09:34:20.640Z,72.70
2023-03-21T09:36:48.480Z,72.20
2023-03-21T09:39:16.164Z,72.60
2023-03-21T09:41:59.948Z,72.60
2023-03-21T09:44:32.545Z,72.70
2023-03-21T09:46:59.399Z,72.50
2023-03-21T09:49:32.910Z,73.80
2023-03-21T09:52:03.555Z,73.50
2023-03-21T09:54:33.409Z,73.70
2023-03-21T09:57:03.744Z,73.90
2023-03-21T09:59:38.279Z,74.10
2023-03-21T10:02:19.767Z,74.10
2023-03-21T10:04:47.000Z,74.20
2023-03-21T10:07:18.783Z,74.00
2023-03-21T10:09:48.331Z,74.90
2023-03-21T10:12:19.926Z,75.10
2023-03-21T10:14:51.094Z,75.00
2023-03-21T10:17:17.847Z,76.20
2023-03-21T10:19:46.505Z,76.00
2023-03-21T10:22:13.113Z,76.20
2023-03-21T10:24:40.076Z,77.00
2023-03-21T10:27:06.844Z,76.60
2023-03-21T10:29:39.375Z,76.50
2023-03-21T10:32:08.017Z,76.90
2023-03-21T10:34:39.974Z,76.80
2023-03-21T10:37:06.891Z,77.20
2023-03-21T10:39:46.605Z,77.40
2023-03-21T10:42:24.777Z,77.10
2023-03-21T10:44:56.424Z,77.20
2023-03-21T10:47:25.466Z,76.70
2023-03-21T10:50:09.921Z,77.40
2023-03-21T10:52:37.963Z,77.30
2023-03-21T10:55:24.243Z,77.10
2023-03-21T10:57:57.568Z,77.30
2023-03-21T11:00:26.354Z,77.40
2023-03-21T11:02:53.925Z,77.40
2023-03-21T11:05:23.019Z,77.40
2023-03-21T11:08:00.160Z,77.40
2023-03-21T11:10:31.424Z,77.40
2023-03-21T11:13:01.285Z,77.40
2023-03-21T11:15:51.205Z,77.30
2023-03-21T11:18:21.613Z,77.40
2023-03-21T11:20:51.176Z,77.40
2023-03-21T11:23:20.427Z,77.40
2023-03-21T11:25:50.732Z,77.40
2023-03-21T11:28:24.441Z,77.40
2023-03-21T11:30:58.299Z,77.40
2023-03-21T11:33:31.501Z,77.40
2023-03-21T11:36:01.112Z,77.40
2023-03-21T11:38:34.910Z,77.30
2023-03-21T11:41:02.081Z,77.30
2023-03-21T11:43:32.918Z,77.40
2023-03-21T11:46:08.293Z,77.40
2023-03-21T11:48:41.082Z,77.40
2023-03-21T11:51:14.447Z,77.30
2023-03-21T11:53:48.933Z,77.20
2023-03-21T11:56:34.267Z,77.20
2023-03-21T11:59:16.163Z,77.40
2023-03-21T12:02:15.745Z,77.40
2023-03-21T12:04:46.907Z,77.20
2023-03-21T12:07:19.706Z,77.30
2023-03-21T12:10:01.480Z,77.10
2023-03-21T12:12:41.542Z,77.40
2023-03-21T12:15:17.543Z,77.40
2023-03-21T12:18:05.586Z,77.40
2023-03-21T12:20:47.416Z,77.40
2023-03-21T12:23:23.388Z,77.40
2023-03-21T12:25:56.351Z,77.40
2023-03-21T12:28:38.094Z,77.40
2023-03-21T12:31:04.650Z,77.40
2023-03-21T12:33:56.870Z,77.40
2023-03-21T12:36:30.781Z,77.40
2023-03-21T12:39:15.969Z,77.40
2023-03-21T12:41:52.225Z,77.40
2023-03-21T12:44:23.630Z,77.40
2023-03-21T12:46:53.371Z,77.40
2023-03-21T12:49:25.721Z,77.40
2023-03-21T12:51:57.549Z,77.40
2023-03-21T12:54:26.541Z,77.40
2023-03-21T12:56:55.870Z,77.40
2023-03-21T12:59:25.449Z,77.40
2023-03-21T13:01:54.781Z,77.40
2023-03-21T13:04:42.528Z,77.40
2023-03-21T13:07:11.770Z,77.40
2023-03-21T13:09:39.210Z,77.40
2023-03-21T13:12:24.731Z,77.40
2023-03-21T13:15:18.347Z,77.40
2023-03-21T13:17:53.216Z,77.40
2023-03-21T13:20:28.283Z,77.40
2023-03-21T13:22:55.088Z,77.40
2023-03-21T13:25:23.045Z,77.40
2023-03-21T13:27:54.532Z,76.90
2023-03-21T13:30:22.726Z,77.20
2023-03-21T13:32:50.744Z,76.40
2023-03-21T13:35:34.278Z,76.60
2023-03-21T13:38:12.816Z,76.70
2023-03-21T13:40:52.097Z,76.80
2023-03-21T13:43:42.038Z,76.80
2023-03-21T13:46:28.966Z,76.90
2023-03-21T13:49:00.065Z,77.10
2023-03-21T13:51:29.735Z,77.10
2023-03-21T13:54:00.461Z,76.90
2023-03-21T13:56:27.157Z,77.20
2023-03-21T13:59:01.338Z,77.30
2023-03-21T14:01:30.880Z,77.20
2023-03-21T14:04:11.052Z,77.30
2023-03-21T14:06:59.127Z,77.30
2023-03-21T14:09:33.800Z,77.40
2023-03-21T14:12:07.538Z,77.20
2023-03-21T14:14:39.540Z,77.30
2023-03-21T14:17:21.839Z,77.30
2023-03-21T14:19:51.402Z,77.30
2023-03-21T14:22:18.471Z,77.40
2023-03-21T14:24:49.461Z,77.40
2023-03-21T14:27:16.233Z,77.40
2023-03-21T14:29:42.889Z,77.40
2023-03-21T14:32:19.503Z,77.40
2023-03-21T14:34:46.493Z,77.40
2023-03-21T14:37:13.346Z,77.40
2023-03-21T14:39:40.108Z,77.40
2023-03-21T14:42:12.110Z,77.40
2023-03-21T14:44:56.313Z,77.40
2023-03-21T14:47:27.870Z,77.40
2023-03-21T14:49:55.637Z,77.40
2023-03-21T14:52:27.245Z,77.40
2023-03-21T14:54:54.637Z,77.40
2023-03-21T14:57:22.631Z,77.40
2023-03-21T14:59:51.735Z,77.40
2023-03-21T15:02:20.315Z,77.40
2023-03-21T15:04:53.740Z,77.40
2023-03-21T15:07:25.598Z,77.40
2023-03-21T15:09:58.625Z,77.40
2023-03-21T15:12:25.191Z,77.30
2023-03-21T15:14:52.443Z,77.40
2023-03-21T15:17:19.513Z,77.30
2023-03-21T15:19:48.482Z,77.40
2023-03-21T15:22:26.326Z,77.40
2023-03-21T15:24:57.596Z,77.40
2023-03-21T15:27:25.056Z,77.40
2023-03-21T15:29:56.784Z,77.40
2023-03-21T15:32:25.515Z,77.40
2023-03-21T15:34:56.669Z,77.40
2023-03-21T15:37:25.416Z,77.40
2023-03-21T15:39:52.459Z,77.40
2023-03-21T15:42:48.559Z,77.40
2023-03-21T15:45:21.266Z,77.40
2023-03-21T15:48:02.850Z,77.40
2023-03-21T15:50:32.538Z,77.40
2023-03-21T15:53:02.121Z,77.30
2023-03-21T15:55:31.328Z,77.40
2023-03-21T15:58:04.436Z,77.40
2023-03-21T16:00:31.210Z,77.40
2023-03-21T16:02:59.952Z,77.40
2023-03-21T16:05:33.494Z,77.40
2023-03-21T16:08:19.340Z,77.40
2023-03-21T16:10:46.238Z,77.40
2023-03-21T16:13:16.533Z,77.40
2023-03-21T16:15:43.529Z,77.40
2023-03-21T16:18:14.338Z,77.40
2023-03-21T16:20:43.250Z,77.40
2023-03-21T16:23:11.070Z,77.40
2023-03-21T16:25:37.662Z,77.40
2023-03-21T16:28:12.752Z,77.40
2023-03-21T16:30:39.527Z,77.40
2023-03-21T16:33:06.318Z,77.30
2023-03-21T16:35:32.974Z,77.30
2023-03-21T16:37:59.654Z,77.30
2023-03-21T16:40:32.618Z,77.30
2023-03-21T16:42:59.203Z,77.40
2023-03-21T16:45:28.245Z,77.40
2023-03-21T16:47:54.856Z,77.40
2023-03-21T16:50:25.947Z,77.40
2023-03-21T16:52:56.046Z,77.40
2023-03-21T16:55:32.888Z,77.40
2023-03-21T16:57:59.898Z,77.40
2023-03-21T17:00:27.673Z,77.40
2023-03-21T17:02:55.140Z,77.40
2023-03-21T17:05:22.953Z,77.40
2023-03-21T17:07:49.468Z,77.40
2023-03-21T17:10:18.203Z,77.40
2023-03-21T17:12:44.885Z,77.40
2023-03-21T17:15:11.733Z,77.40
2023-03-21T17:17:40.839Z,77.40
2023-03-21T17:20:15.932Z,77.40
2023-03-21T17:22:44.792Z,77.40
2023-03-21T17:25:11.513Z,77.40
2023-03-21T17:27:38.251Z,77.40
2023-03-21T17:30:10.660Z,77.40
2023-03-21T17:32:37.243Z,77.40
2023-03-21T17:35:03.960Z,77.40
2023-03-21T17:37:30.489Z,77.40
2023-03-21T17:39:59.205Z,77.40
2023-03-21T17:42:26.115Z,77.40
2023-03-21T17:44:52.651Z,77.40
2023-03-21T17:47:19.277Z,77.40
2023-03-21T17:49:46.477Z,77.40
2023-03-21T17:52:12.993Z,77.40
2023-03-21T17:54:39.519Z,77.40
2023-03-21T17:57:06.321Z,77.40
2023-03-21T17:59:32.891Z,77.40
2023-03-21T18:01:59.501Z,77.40
2023-03-21T18:04:27.037Z,77.40
2023-03-21T18:06:57.372Z,77.40
2023-03-21T18:09:24.008Z,77.40
2023-03-21T18:11:50.733Z,77.40
2023-03-21T18:14:23.928Z,77.40
2023-03-21T18:16:54.189Z,77.40
2023-03-21T18:19:21.165Z,77.40
2023-03-21T18:21:47.763Z,77.40
2023-03-21T18:24:14.825Z,77.40
2023-03-21T18:26:41.954Z,77.40
2023-03-21T18:30:08.110Z,77.40
2023-03-21T18:32:06.463Z,77.40
2023-03-21T18:34:35.208Z,77.40
2023-03-21T18:37:03.841Z,77.40
2023-03-21T18:39:33.488Z,77.40
2023-03-21T18:42:04.521Z,77.40
2023-03-21T18:44:38.531Z,77.40
2023-03-21T18:47:06.462Z,77.40
2023-03-21T18:50:12.648Z,77.40
2023-03-21T18:52:20.081Z,77.40
2023-03-21T18:54:47.660Z,77.40
2023-03-21T18:57:35.037Z,77.40
2023-03-21T19:00:01.433Z,77.40
2023-03-21T19:02:28.056Z,77.40
2023-03-21T19:04:55.565Z,77.40
2023-03-21T19:07:22.131Z,77.40
2023-03-21T19:10:16.112Z,77.40
2023-03-21T19:12:37.858Z,77.40
2023-03-21T19:15:07.616Z,77.40
2023-03-21T19:20:20.819Z,77.40
2023-03-21T19:22:47.557Z,77.40
2023-03-21T19:25:15.441Z,77.40
2023-03-21T19:27:42.302Z,77.40
2023-03-21T19:30:14.788Z,77.40
2023-03-21T19:32:43.102Z,77.40
2023-03-21T19:35:11.406Z,77.40
2023-03-21T19:37:37.975Z,77.40
2023-03-21T19:40:05.751Z,77.40
2023-03-21T19:42:33.070Z,77.40
2023-03-21T19:44:59.604Z,77.40
2023-03-21T19:47:26.243Z,77.40
2023-03-21T19:52:40.705Z,77.40
2023-03-21T19:55:10.768Z,77.40
2023-03-21T19:57:37.411Z,77.40
2023-03-21T20:00:04.198Z,77.40
2023-03-21T20:02:36.030Z,77.40
2023-03-21T20:05:03.400Z,77.40
2023-03-21T20:07:32.777Z,77.40
2023-03-21T20:09:59.729Z,77.40
2023-03-21T20:12:27.342Z,77.40
2023-03-21T20:15:05.594Z,77.40
2023-03-21T20:17:38.785Z,77.40
2023-03-21T20:20:09.232Z,77.40
2023-03-21T20:23:05.307Z,77.40
2023-03-21T20:25:22.999Z,77.40
2023-03-21T20:28:09.398Z,77.40
2023-03-21T20:30:36.519Z,77.40
2023-03-21T20:33:03.160Z,77.40
2023-03-21T20:36:16.489Z,77.40
2023-03-21T20:38:22.157Z,77.40
2023-03-21T20:40:48.730Z,77.40
2023-03-21T20:46:03.914Z,77.40
2023-03-21T20:48:31.098Z,77.40
2023-03-21T20:51:39.280Z,77.40
2023-03-21T20:53:50.632Z,77.40
2023-03-21T20:56:20.598Z,77.40
2023-03-21T20:59:04.504Z,77.40
2023-03-21T21:01:33.756Z,77.40
2023-03-21T21:04:00.686Z,77.40
2023-03-21T21:06:28.449Z,77.40
2023-03-21T21:09:00.058Z,77.40
2023-03-21T21:12:05.004Z,77.40
2023-03-21T21:14:14.998Z,77.40
2023-03-21T21:16:43.004Z,77.40
2023-03-21T21:19:09.882Z,77.40
2023-03-21T21:21:37.400Z,77.40
2023-03-21T21:24:07.506Z,77.40
2023-03-21T21:26:37.302Z,77.40
2023-03-21T21:29:04.917Z,77.40
2023-03-21T21:31:34.707Z,77.40
2023-03-21T21:34:05.533Z,77.40
2023-03-21T21:36:32.078Z,77.40
2023-03-21T21:39:00.840Z,77.40
2023-03-21T21:41:27.705Z,77.40
2023-03-21T21:43:54.225Z,77.40
2023-03-21T21:46:23.369Z,77.40
2023-03-21T21:48:49.989Z,77.40
2023-03-21T21:51:18.237Z,77.40
2023-03-21T21:53:46.346Z,77.40
2023-03-21T21:56:14.112Z,77.40
2023-03-21T21:58:46.484Z,77.40
2023-03-21T22:01:13.135Z,77.40
2023-03-21T22:03:45.870Z,77.40
2023-03-21T22:06:12.464Z,77.40
2023-03-21T22:08:47.171Z,77.40
2023-03-21T22:11:14.337Z,77.40
2023-03-21T22:13:41.011Z,77.40
2023-03-21T22:16:09.937Z,77.40
2023-03-21T22:18:38.405Z,77.40
2023-03-21T22:21:05.904Z,77.40
2023-03-21T22:23:32.516Z,77.40
2023-03-21T22:26:01.561Z,77.40
2023-03-21T22:28:28.379Z,77.40
2023-03-21T22:30:55.555Z,77.40
2023-03-21T22:33:22.404Z,77.40
2023-03-21T22:35:52.432Z,77.40
2023-03-21T22:38:24.063Z,77.40
2023-03-21T22:40:54.746Z,77.40
2023-03-21T22:43:21.302Z,77.40
2023-03-21T22:45:50.379Z,77.40
2023-03-21T22:48:17.055Z,77.40
2023-03-21T22:50:43.871Z,77.40
2023-03-21T22:53:10.461Z,77.40
2023-03-21T22:55:39.898Z,77.40
2023-03-21T22:58:06.615Z,77.40
2023-03-21T23:00:35.694Z,77.40
2023-03-21T23:03:02.290Z,77.40
2023-03-21T23:05:28.995Z,77.40
2023-03-21T23:07:55.552Z,77.40
2023-03-21T23:10:22.140Z,77.40
2023-03-21T23:12:49.224Z,77.40
2023-03-21T23:15:15.873Z,77.40
2023-03-21T23:17:44.126Z,77.40
2023-03-21T23:20:10.916Z,77.40
2023-03-21T23:22:37.966Z,77.40
2023-03-21T23:25:04.863Z,77.40
2023-03-21T23:27:31.475Z,77.40
2023-03-21T23:29:58.077Z,77.40
2023-03-21T23:32:24.636Z,77.40
2023-03-21T23:34:51.294Z,77.40
2023-03-21T23:37:18.233Z,77.40
2023-03-21T23:39:45.288Z,77.40
2023-03-21T23:42:12.087Z,77.40
2023-03-21T23:44:38.652Z,77.40
2023-03-21T23:47:05.352Z,77.40
2023-03-21T23:49:33.702Z,77.40
2023-03-21T23:52:00.612Z,77.40
2023-03-21T23:54:27.309Z,77.40
2023-03-21T23:56:53.965Z,77.40
2023-03-21T23:59:22.870Z,77.40
